sensor_id;sensor_type;location;lat;lon;timestamp;temperature;humidity
39019;DHT22;24786;51.984;5.872;2023-02-28T00:00:33;1.50;99.90
39019;DHT22;24786;51.984;5.872;2023-02-28T00:02:59;1.50;99.90
39019;DHT22;24786;51.984;5.872;2023-02-28T00:05:26;1.60;99.90
39019;DHT22;24786;51.984;5.872;2023-02-28T00:07:52;1.70;99.90
39019;DHT22;24786;51.984;5.872;2023-02-28T00:10:20;1.70;99.90
39019;DHT22;24786;51.984;5.872;2023-02-28T00:12:51;1.80;99.90
39019;DHT22;24786;51.984;5.872;2023-02-28T00:15:17;1.80;99.90
39019;DHT22;24786;51.984;5.872;2023-02-28T00:17:43;1.80;99.90
39019;DHT22;24786;51.984;5.872;2023-02-28T00:20:10;1.90;99.90
39019;DHT22;24786;51.984;5.872;2023-02-28T00:22:45;1.90;99.90
39019;DHT22;24786;51.984;5.872;2023-02-28T00:25:14;1.90;99.90
39019;DHT22;24786;51.984;5.872;2023-02-28T00:27:40;1.90;99.90
39019;DHT22;24786;51.984;5.872;2023-02-28T00:30:09;2.00;99.90
39019;DHT22;24786;51.984;5.872;2023-02-28T00:32:35;2.00;99.90
39019;DHT22;24786;51.984;5.872;2023-02-28T00:35:03;2.10;99.90
39019;DHT22;24786;51.984;5.872;2023-02-28T00:37:28;2.10;99.90
39019;DHT22;24786;51.984;5.872;2023-02-28T00:39:54;2.10;99.90
39019;DHT22;24786;51.984;5.872;2023-02-28T00:42:20;2.10;99.90
39019;DHT22;24786;51.984;5.872;2023-02-28T00:44:45;2.20;99.90
39019;DHT22;24786;51.984;5.872;2023-02-28T00:47:11;2.20;99.90
39019;DHT22;24786;51.984;5.872;2023-02-28T00:49:36;2.20;99.90
39019;DHT22;24786;51.984;5.872;2023-02-28T00:52:02;2.30;99.90
39019;DHT22;24786;51.984;5.872;2023-02-28T00:54:28;2.30;99.90
39019;DHT22;24786;51.984;5.872;2023-02-28T00:56:53;2.30;99.90
39019;DHT22;24786;51.984;5.872;2023-02-28T00:59:19;2.40;99.90
39019;DHT22;24786;51.984;5.872;2023-02-28T01:01:46;2.40;99.90
39019;DHT22;24786;51.984;5.872;2023-02-28T01:04:13;2.40;99.90
39019;DHT22;24786;51.984;5.872;2023-02-28T01:06:39;2.40;99.90
39019;DHT22;24786;51.984;5.872;2023-02-28T01:09:06;2.40;99.90
39019;DHT22;24786;51.984;5.872;2023-02-28T01:11:32;2.40;99.90
39019;DHT22;24786;51.984;5.872;2023-02-28T01:13:58;2.50;99.90
39019;DHT22;24786;51.984;5.872;2023-02-28T01:16:24;2.40;99.90
39019;DHT22;24786;51.984;5.872;2023-02-28T01:18:50;2.40;99.90
39019;DHT22;24786;51.984;5.872;2023-02-28T01:21:17;2.40;99.90
39019;DHT22;24786;51.984;5.872;2023-02-28T01:23:43;2.40;99.90
39019;DHT22;24786;51.984;5.872;2023-02-28T01:26:12;2.40;99.90
39019;DHT22;24786;51.984;5.872;2023-02-28T01:28:38;2.40;99.90
39019;DHT22;24786;51.984;5.872;2023-02-28T01:31:04;2.40;99.90
39019;DHT22;24786;51.984;5.872;2023-02-28T01:33:30;2.40;99.90
39019;DHT22;24786;51.984;5.872;2023-02-28T01:36:04;2.50;99.90
39019;DHT22;24786;51.984;5.872;2023-02-28T01:38:30;2.40;99.90
39019;DHT22;24786;51.984;5.872;2023-02-28T01:40:56;2.40;99.90
39019;DHT22;24786;51.984;5.872;2023-02-28T01:43:28;2.40;99.90
39019;DHT22;24786;51.984;5.872;2023-02-28T01:45:55;2.40;99.90
39019;DHT22;24786;51.984;5.872;2023-02-28T01:48:34;2.40;99.90
39019;DHT22;24786;51.984;5.872;2023-02-28T01:51:04;2.40;99.90
39019;DHT22;24786;51.984;5.872;2023-02-28T01:53:36;2.40;99.90
39019;DHT22;24786;51.984;5.872;2023-02-28T01:56:05;2.40;99.90
39019;DHT22;24786;51.984;5.872;2023-02-28T01:58:33;2.40;99.90
39019;DHT22;24786;51.984;5.872;2023-02-28T02:00:59;2.40;99.90
39019;DHT22;24786;51.984;5.872;2023-02-28T02:03:25;2.40;99.90
39019;DHT22;24786;51.984;5.872;2023-02-28T02:05:51;2.40;99.90
39019;DHT22;24786;51.984;5.872;2023-02-28T02:08:25;2.40;99.90
39019;DHT22;24786;51.984;5.872;2023-02-28T02:10:57;2.40;99.90
39019;DHT22;24786;51.984;5.872;2023-02-28T02:13:54;2.40;99.90
39019;DHT22;24786;51.984;5.872;2023-02-28T02:16:42;2.40;99.90
39019;DHT22;24786;51.984;5.872;2023-02-28T02:22:01;2.40;99.90
39019;DHT22;24786;51.984;5.872;2023-02-28T02:35:13;2.40;99.90
39019;DHT22;24786;51.984;5.872;2023-02-28T02:43:26;2.50;99.90
39019;DHT22;24786;51.984;5.872;2023-02-28T02:46:04;2.50;99.90
39019;DHT22;24786;51.984;5.872;2023-02-28T02:48:34;2.50;99.90
39019;DHT22;24786;51.984;5.872;2023-02-28T02:51:05;2.50;99.90
39019;DHT22;24786;51.984;5.872;2023-02-28T02:53:42;2.60;99.90
39019;DHT22;24786;51.984;5.872;2023-02-28T02:56:10;2.60;99.90
39019;DHT22;24786;51.984;5.872;2023-02-28T02:58:40;2.60;99.90
39019;DHT22;24786;51.984;5.872;2023-02-28T03:01:08;2.60;99.90
39019;DHT22;24786;51.984;5.872;2023-02-28T03:03:35;2.60;99.90
39019;DHT22;24786;51.984;5.872;2023-02-28T03:06:02;2.60;99.90
39019;DHT22;24786;51.984;5.872;2023-02-28T03:08:31;2.70;99.90
39019;DHT22;24786;51.984;5.872;2023-02-28T03:11:01;2.70;99.90
39019;DHT22;24786;51.984;5.872;2023-02-28T03:24:33;2.70;99.90
39019;DHT22;24786;51.984;5.872;2023-02-28T03:27:09;2.70;99.90
39019;DHT22;24786;51.984;5.872;2023-02-28T03:29:43;2.70;99.90
39019;DHT22;24786;51.984;5.872;2023-02-28T03:32:13;2.70;99.90
39019;DHT22;24786;51.984;5.872;2023-02-28T03:34:59;2.70;99.90
39019;DHT22;24786;51.984;5.872;2023-02-28T03:37:27;2.70;99.90
39019;DHT22;24786;51.984;5.872;2023-02-28T03:40:22;2.70;99.90
39019;DHT22;24786;51.984;5.872;2023-02-28T03:42:51;2.70;99.90
39019;DHT22;24786;51.984;5.872;2023-02-28T03:45:23;2.70;99.90
39019;DHT22;24786;51.984;5.872;2023-02-28T03:50:49;2.80;99.90
39019;DHT22;24786;51.984;5.872;2023-02-28T03:55:45;2.80;99.90
39019;DHT22;24786;51.984;5.872;2023-02-28T03:58:24;2.80;99.90
39019;DHT22;24786;51.984;5.872;2023-02-28T04:00:57;2.80;99.90
39019;DHT22;24786;51.984;5.872;2023-02-28T04:03:24;2.80;99.90
39019;DHT22;24786;51.984;5.872;2023-02-28T04:05:54;2.80;99.90
39019;DHT22;24786;51.984;5.872;2023-02-28T04:08:22;2.70;99.90
39019;DHT22;24786;51.984;5.872;2023-02-28T04:10:53;2.70;99.90
39019;DHT22;24786;51.984;5.872;2023-02-28T04:13:20;2.70;99.90
39019;DHT22;24786;51.984;5.872;2023-02-28T04:15:45;2.70;99.90
39019;DHT22;24786;51.984;5.872;2023-02-28T04:18:11;2.70;99.90
39019;DHT22;24786;51.984;5.872;2023-02-28T04:20:36;2.60;99.90
39019;DHT22;24786;51.984;5.872;2023-02-28T04:23:02;2.60;99.90
39019;DHT22;24786;51.984;5.872;2023-02-28T04:25:28;2.60;99.90
39019;DHT22;24786;51.984;5.872;2023-02-28T04:27:53;2.60;99.90
39019;DHT22;24786;51.984;5.872;2023-02-28T04:30:19;2.60;99.90
39019;DHT22;24786;51.984;5.872;2023-02-28T04:32:44;2.60;99.90
39019;DHT22;24786;51.984;5.872;2023-02-28T04:35:10;2.60;99.90
39019;DHT22;24786;51.984;5.872;2023-02-28T04:37:35;2.60;99.90
39019;DHT22;24786;51.984;5.872;2023-02-28T04:40:03;2.50;99.90
39019;DHT22;24786;51.984;5.872;2023-02-28T04:42:29;2.50;99.90
39019;DHT22;24786;51.984;5.872;2023-02-28T04:45:04;2.50;99.90
39019;DHT22;24786;51.984;5.872;2023-02-28T04:47:29;2.50;99.90
39019;DHT22;24786;51.984;5.872;2023-02-28T04:49:55;2.40;99.90
39019;DHT22;24786;51.984;5.872;2023-02-28T04:52:21;2.40;99.90
39019;DHT22;24786;51.984;5.872;2023-02-28T04:54:46;2.40;99.90
39019;DHT22;24786;51.984;5.872;2023-02-28T04:57:12;2.40;99.90
39019;DHT22;24786;51.984;5.872;2023-02-28T04:59:37;2.40;99.90
39019;DHT22;24786;51.984;5.872;2023-02-28T05:02:03;2.30;99.90
39019;DHT22;24786;51.984;5.872;2023-02-28T05:04:35;2.30;99.90
39019;DHT22;24786;51.984;5.872;2023-02-28T05:07:02;2.30;99.90
39019;DHT22;24786;51.984;5.872;2023-02-28T05:09:28;2.30;99.90
39019;DHT22;24786;51.984;5.872;2023-02-28T05:11:54;2.30;99.90
39019;DHT22;24786;51.984;5.872;2023-02-28T05:14:20;2.20;99.90
39019;DHT22;24786;51.984;5.872;2023-02-28T05:16:46;2.20;99.90
39019;DHT22;24786;51.984;5.872;2023-02-28T05:19:11;2.20;99.90
39019;DHT22;24786;51.984;5.872;2023-02-28T05:21:40;2.20;99.90
39019;DHT22;24786;51.984;5.872;2023-02-28T05:24:10;2.20;99.90
39019;DHT22;24786;51.984;5.872;2023-02-28T05:26:45;2.10;99.90
39019;DHT22;24786;51.984;5.872;2023-02-28T05:29:10;2.20;99.90
39019;DHT22;24786;51.984;5.872;2023-02-28T05:31:36;2.20;99.90
39019;DHT22;24786;51.984;5.872;2023-02-28T05:34:02;2.10;99.90
39019;DHT22;24786;51.984;5.872;2023-02-28T05:36:29;2.10;99.90
39019;DHT22;24786;51.984;5.872;2023-02-28T05:38:55;2.10;99.90
39019;DHT22;24786;51.984;5.872;2023-02-28T05:41:20;2.10;99.90
39019;DHT22;24786;51.984;5.872;2023-02-28T05:43:47;2.10;99.90
39019;DHT22;24786;51.984;5.872;2023-02-28T05:46:13;2.10;99.90
39019;DHT22;24786;51.984;5.872;2023-02-28T05:48:40;2.10;99.90
39019;DHT22;24786;51.984;5.872;2023-02-28T05:51:08;2.00;99.90
39019;DHT22;24786;51.984;5.872;2023-02-28T05:53:34;2.00;99.90
39019;DHT22;24786;51.984;5.872;2023-02-28T05:56:00;2.00;99.90
39019;DHT22;24786;51.984;5.872;2023-02-28T05:58:25;2.10;99.90
39019;DHT22;24786;51.984;5.872;2023-02-28T06:00:58;2.00;99.90
39019;DHT22;24786;51.984;5.872;2023-02-28T06:03:25;2.00;99.90
39019;DHT22;24786;51.984;5.872;2023-02-28T06:05:51;2.00;99.90
39019;DHT22;24786;51.984;5.872;2023-02-28T06:08:17;2.00;99.90
39019;DHT22;24786;51.984;5.872;2023-02-28T06:10:42;2.00;99.90
39019;DHT22;24786;51.984;5.872;2023-02-28T06:13:08;2.00;99.90
39019;DHT22;24786;51.984;5.872;2023-02-28T06:15:33;2.00;99.90
39019;DHT22;24786;51.984;5.872;2023-02-28T06:18:02;2.00;99.90
39019;DHT22;24786;51.984;5.872;2023-02-28T06:20:28;2.20;99.90
39019;DHT22;24786;51.984;5.872;2023-02-28T06:22:58;2.10;99.90
39019;DHT22;24786;51.984;5.872;2023-02-28T06:25:25;2.10;99.90
39019;DHT22;24786;51.984;5.872;2023-02-28T06:27:52;2.10;99.90
39019;DHT22;24786;51.984;5.872;2023-02-28T06:30:20;2.10;99.90
39019;DHT22;24786;51.984;5.872;2023-02-28T06:32:52;2.10;99.90
39019;DHT22;24786;51.984;5.872;2023-02-28T06:35:17;2.20;99.90
39019;DHT22;24786;51.984;5.872;2023-02-28T06:37:43;2.20;99.90
39019;DHT22;24786;51.984;5.872;2023-02-28T06:40:10;2.20;99.90
39019;DHT22;24786;51.984;5.872;2023-02-28T06:48:49;2.30;99.90
39019;DHT22;24786;51.984;5.872;2023-02-28T06:51:17;2.30;99.90
39019;DHT22;24786;51.984;5.872;2023-02-28T06:53:54;2.40;99.90
39019;DHT22;24786;51.984;5.872;2023-02-28T06:56:20;2.40;99.90
39019;DHT22;24786;51.984;5.872;2023-02-28T06:58:49;2.50;99.90
39019;DHT22;24786;51.984;5.872;2023-02-28T07:01:16;2.50;99.90
39019;DHT22;24786;51.984;5.872;2023-02-28T07:03:42;2.50;99.90
39019;DHT22;24786;51.984;5.872;2023-02-28T07:06:07;2.60;99.90
39019;DHT22;24786;51.984;5.872;2023-02-28T07:08:33;2.60;99.90
39019;DHT22;24786;51.984;5.872;2023-02-28T07:10:59;2.70;99.90
39019;DHT22;24786;51.984;5.872;2023-02-28T07:13:25;2.80;99.90
39019;DHT22;24786;51.984;5.872;2023-02-28T07:15:59;2.80;99.90
39019;DHT22;24786;51.984;5.872;2023-02-28T07:18:24;2.80;99.90
39019;DHT22;24786;51.984;5.872;2023-02-28T07:20:51;2.80;99.90
39019;DHT22;24786;51.984;5.872;2023-02-28T07:23:17;2.90;99.90
39019;DHT22;24786;51.984;5.872;2023-02-28T07:25:42;2.90;99.90
39019;DHT22;24786;51.984;5.872;2023-02-28T07:28:09;3.00;99.90
39019;DHT22;24786;51.984;5.872;2023-02-28T07:30:34;3.00;99.90
39019;DHT22;24786;51.984;5.872;2023-02-28T07:33:00;3.00;99.90
39019;DHT22;24786;51.984;5.872;2023-02-28T07:35:25;3.10;99.90
39019;DHT22;24786;51.984;5.872;2023-02-28T07:37:51;3.10;99.90
39019;DHT22;24786;51.984;5.872;2023-02-28T07:40:17;3.10;99.90
39019;DHT22;24786;51.984;5.872;2023-02-28T07:42:43;3.10;99.90
39019;DHT22;24786;51.984;5.872;2023-02-28T07:45:10;3.10;99.90
39019;DHT22;24786;51.984;5.872;2023-02-28T07:47:38;3.10;99.90
39019;DHT22;24786;51.984;5.872;2023-02-28T07:50:04;3.20;99.90
39019;DHT22;24786;51.984;5.872;2023-02-28T07:52:30;3.20;99.90
39019;DHT22;24786;51.984;5.872;2023-02-28T07:54:56;3.20;99.90
39019;DHT22;24786;51.984;5.872;2023-02-28T07:57:22;3.30;99.90
39019;DHT22;24786;51.984;5.872;2023-02-28T07:59:47;3.30;99.90
39019;DHT22;24786;51.984;5.872;2023-02-28T08:02:17;3.40;99.90
39019;DHT22;24786;51.984;5.872;2023-02-28T08:04:43;3.40;99.90
39019;DHT22;24786;51.984;5.872;2023-02-28T08:07:09;3.40;99.90
39019;DHT22;24786;51.984;5.872;2023-02-28T08:09:42;3.40;99.90
39019;DHT22;24786;51.984;5.872;2023-02-28T08:12:08;3.40;99.90
39019;DHT22;24786;51.984;5.872;2023-02-28T08:14:34;3.40;99.90
39019;DHT22;24786;51.984;5.872;2023-02-28T08:17:00;3.40;99.90
39019;DHT22;24786;51.984;5.872;2023-02-28T08:19:26;3.30;99.90
39019;DHT22;24786;51.984;5.872;2023-02-28T08:21:51;3.40;99.90
39019;DHT22;24786;51.984;5.872;2023-02-28T08:24:17;3.30;99.90
39019;DHT22;24786;51.984;5.872;2023-02-28T08:26:43;3.40;99.90
39019;DHT22;24786;51.984;5.872;2023-02-28T08:29:08;3.40;99.90
39019;DHT22;24786;51.984;5.872;2023-02-28T08:31:34;3.40;99.90
39019;DHT22;24786;51.984;5.872;2023-02-28T08:34:07;3.40;99.90
39019;DHT22;24786;51.984;5.872;2023-02-28T08:36:34;3.50;99.90
39019;DHT22;24786;51.984;5.872;2023-02-28T08:38:59;3.50;99.90
39019;DHT22;24786;51.984;5.872;2023-02-28T08:41:25;3.50;99.90
39019;DHT22;24786;51.984;5.872;2023-02-28T08:43:51;3.50;99.90
39019;DHT22;24786;51.984;5.872;2023-02-28T08:46:17;3.50;99.90
39019;DHT22;24786;51.984;5.872;2023-02-28T08:48:43;3.50;99.90
39019;DHT22;24786;51.984;5.872;2023-02-28T08:51:12;3.50;99.90
39019;DHT22;24786;51.984;5.872;2023-02-28T08:53:39;3.50;99.90
39019;DHT22;24786;51.984;5.872;2023-02-28T08:56:11;3.50;99.90
39019;DHT22;24786;51.984;5.872;2023-02-28T08:58:37;3.50;99.90
39019;DHT22;24786;51.984;5.872;2023-02-28T09:01:12;3.50;99.90
39019;DHT22;24786;51.984;5.872;2023-02-28T09:03:39;3.50;99.30
39019;DHT22;24786;51.984;5.872;2023-02-28T09:06:07;3.60;99.40
39019;DHT22;24786;51.984;5.872;2023-02-28T09:08:33;3.60;99.40
39019;DHT22;24786;51.984;5.872;2023-02-28T09:10:58;3.60;99.40
39019;DHT22;24786;51.984;5.872;2023-02-28T09:13:25;3.70;99.20
39019;DHT22;24786;51.984;5.872;2023-02-28T09:15:52;3.70;99.20
39019;DHT22;24786;51.984;5.872;2023-02-28T09:18:18;3.70;99.00
39019;DHT22;24786;51.984;5.872;2023-02-28T09:20:44;3.70;98.50
39019;DHT22;24786;51.984;5.872;2023-02-28T09:23:11;3.80;98.60
39019;DHT22;24786;51.984;5.872;2023-02-28T09:25:37;3.80;98.40
39019;DHT22;24786;51.984;5.872;2023-02-28T09:28:09;3.90;98.40
39019;DHT22;24786;51.984;5.872;2023-02-28T09:30:35;3.90;98.10
39019;DHT22;24786;51.984;5.872;2023-02-28T09:33:01;3.90;97.90
39019;DHT22;24786;51.984;5.872;2023-02-28T09:35:27;3.90;97.40
39019;DHT22;24786;51.984;5.872;2023-02-28T09:37:53;4.00;96.60
39019;DHT22;24786;51.984;5.872;2023-02-28T09:40:20;4.00;96.40
39019;DHT22;24786;51.984;5.872;2023-02-28T09:42:48;4.00;96.20
39019;DHT22;24786;51.984;5.872;2023-02-28T09:45:33;4.10;95.80
39019;DHT22;24786;51.984;5.872;2023-02-28T09:48:04;4.00;95.50
39019;DHT22;24786;51.984;5.872;2023-02-28T09:50:44;4.00;95.70
39019;DHT22;24786;51.984;5.872;2023-02-28T09:53:30;4.10;95.70
39019;DHT22;24786;51.984;5.872;2023-02-28T09:56:03;4.10;95.70
39019;DHT22;24786;51.984;5.872;2023-02-28T09:58:51;4.10;95.50
39019;DHT22;24786;51.984;5.872;2023-02-28T10:01:43;4.20;95.40
39019;DHT22;24786;51.984;5.872;2023-02-28T10:10:49;4.20;94.30
39019;DHT22;24786;51.984;5.872;2023-02-28T10:13:32;4.30;94.30
39019;DHT22;24786;51.984;5.872;2023-02-28T10:16:27;4.30;94.20
39019;DHT22;24786;51.984;5.872;2023-02-28T10:19:20;4.30;94.10
39019;DHT22;24786;51.984;5.872;2023-02-28T10:21:59;4.40;94.10
39019;DHT22;24786;51.984;5.872;2023-02-28T10:24:57;4.40;94.10
39019;DHT22;24786;51.984;5.872;2023-02-28T10:27:32;4.50;94.00
39019;DHT22;24786;51.984;5.872;2023-02-28T10:29:59;4.50;93.30
39019;DHT22;24786;51.984;5.872;2023-02-28T10:32:36;4.50;93.70
39019;DHT22;24786;51.984;5.872;2023-02-28T10:37:38;4.60;92.90
39019;DHT22;24786;51.984;5.872;2023-02-28T10:40:06;4.50;91.90
39019;DHT22;24786;51.984;5.872;2023-02-28T10:42:32;4.60;92.00
39019;DHT22;24786;51.984;5.872;2023-02-28T10:45:14;4.50;92.30
39019;DHT22;24786;51.984;5.872;2023-02-28T10:47:51;4.60;92.30
39019;DHT22;24786;51.984;5.872;2023-02-28T11:01:21;4.90;92.30
39019;DHT22;24786;51.984;5.872;2023-02-28T11:03:52;4.90;92.40
39019;DHT22;24786;51.984;5.872;2023-02-28T11:06:30;5.10;92.30
39019;DHT22;24786;51.984;5.872;2023-02-28T11:08:58;5.20;92.00
39019;DHT22;24786;51.984;5.872;2023-02-28T11:11:27;5.30;91.70
39019;DHT22;24786;51.984;5.872;2023-02-28T11:13:57;5.30;90.80
39019;DHT22;24786;51.984;5.872;2023-02-28T11:16:35;5.30;90.80
39019;DHT22;24786;51.984;5.872;2023-02-28T11:19:04;5.40;91.00
39019;DHT22;24786;51.984;5.872;2023-02-28T11:21:33;5.40;91.00
39019;DHT22;24786;51.984;5.872;2023-02-28T11:24:04;5.40;91.10
39019;DHT22;24786;51.984;5.872;2023-02-28T11:26:49;5.40;90.40
39019;DHT22;24786;51.984;5.872;2023-02-28T11:29:24;5.50;89.30
39019;DHT22;24786;51.984;5.872;2023-02-28T11:34:27;5.50;88.90
39019;DHT22;24786;51.984;5.872;2023-02-28T11:36:55;5.50;89.90
39019;DHT22;24786;51.984;5.872;2023-02-28T11:39:22;5.50;90.10
39019;DHT22;24786;51.984;5.872;2023-02-28T11:44:44;5.60;89.80
39019;DHT22;24786;51.984;5.872;2023-02-28T11:50:10;5.70;89.70
39019;DHT22;24786;51.984;5.872;2023-02-28T11:52:54;5.70;88.60
39019;DHT22;24786;51.984;5.872;2023-02-28T11:55:37;5.80;88.40
39019;DHT22;24786;51.984;5.872;2023-02-28T12:01:19;5.90;88.30
39019;DHT22;24786;51.984;5.872;2023-02-28T12:04:04;6.00;88.50
39019;DHT22;24786;51.984;5.872;2023-02-28T12:09:42;6.10;88.70
39019;DHT22;24786;51.984;5.872;2023-02-28T12:18:06;6.20;86.60
39019;DHT22;24786;51.984;5.872;2023-02-28T12:20:42;6.20;86.70
39019;DHT22;24786;51.984;5.872;2023-02-28T12:23:35;6.30;84.30
39019;DHT22;24786;51.984;5.872;2023-02-28T12:29:09;6.30;84.00
39019;DHT22;24786;51.984;5.872;2023-02-28T12:32:13;6.40;83.00
39019;DHT22;24786;51.984;5.872;2023-02-28T12:35:04;6.40;81.20
39019;DHT22;24786;51.984;5.872;2023-02-28T12:43:20;6.50;82.90
39019;DHT22;24786;51.984;5.872;2023-02-28T12:45:58;6.60;80.30
39019;DHT22;24786;51.984;5.872;2023-02-28T12:48:33;6.70;82.00
39019;DHT22;24786;51.984;5.872;2023-02-28T12:51:02;6.70;81.50
39019;DHT22;24786;51.984;5.872;2023-02-28T12:53:39;6.70;81.40
39019;DHT22;24786;51.984;5.872;2023-02-28T12:56:09;6.60;79.30
39019;DHT22;24786;51.984;5.872;2023-02-28T12:58:47;6.60;80.70
39019;DHT22;24786;51.984;5.872;2023-02-28T13:09:55;6.50;77.30
39019;DHT22;24786;51.984;5.872;2023-02-28T13:12:22;6.50;77.00
39019;DHT22;24786;51.984;5.872;2023-02-28T13:14:49;6.40;77.20
39019;DHT22;24786;51.984;5.872;2023-02-28T13:17:21;6.50;78.80
39019;DHT22;24786;51.984;5.872;2023-02-28T13:19:58;6.40;79.50
39019;DHT22;24786;51.984;5.872;2023-02-28T13:22:42;6.50;78.00
39019;DHT22;24786;51.984;5.872;2023-02-28T13:27:55;6.50;77.10
39019;DHT22;24786;51.984;5.872;2023-02-28T13:38:37;6.50;77.50
39019;DHT22;24786;51.984;5.872;2023-02-28T13:41:42;6.50;76.80
39019;DHT22;24786;51.984;5.872;2023-02-28T13:44:12;6.60;77.50
39019;DHT22;24786;51.984;5.872;2023-02-28T13:49:31;6.60;78.60
39019;DHT22;24786;51.984;5.872;2023-02-28T13:52:15;6.60;78.50
39019;DHT22;24786;51.984;5.872;2023-02-28T13:55:06;6.60;78.90
39019;DHT22;24786;51.984;5.872;2023-02-28T14:03:41;6.60;78.20
39019;DHT22;24786;51.984;5.872;2023-02-28T14:06:31;6.60;78.20
39019;DHT22;24786;51.984;5.872;2023-02-28T14:09:06;6.50;78.10
39019;DHT22;24786;51.984;5.872;2023-02-28T14:11:43;6.50;78.00
39019;DHT22;24786;51.984;5.872;2023-02-28T14:14:53;6.50;78.90
39019;DHT22;24786;51.984;5.872;2023-02-28T14:16:55;6.50;77.40
39019;DHT22;24786;51.984;5.872;2023-02-28T14:19:31;6.40;77.40
39019;DHT22;24786;51.984;5.872;2023-02-28T14:22:18;6.50;76.60
39019;DHT22;24786;51.984;5.872;2023-02-28T14:25:23;6.40;77.30
39019;DHT22;24786;51.984;5.872;2023-02-28T14:28:04;6.40;77.80
39019;DHT22;24786;51.984;5.872;2023-02-28T14:30:49;6.40;77.30
39019;DHT22;24786;51.984;5.872;2023-02-28T14:36:25;6.30;78.90
39019;DHT22;24786;51.984;5.872;2023-02-28T14:38:54;6.40;78.70
39019;DHT22;24786;51.984;5.872;2023-02-28T14:41:31;6.40;77.20
39019;DHT22;24786;51.984;5.872;2023-02-28T14:44:02;6.40;78.00
39019;DHT22;24786;51.984;5.872;2023-02-28T14:46:37;6.40;77.80
39019;DHT22;24786;51.984;5.872;2023-02-28T14:49:11;6.40;78.20
39019;DHT22;24786;51.984;5.872;2023-02-28T14:51:37;6.40;78.30
39019;DHT22;24786;51.984;5.872;2023-02-28T14:54:03;6.40;78.60
39019;DHT22;24786;51.984;5.872;2023-02-28T14:56:36;6.30;78.20
39019;DHT22;24786;51.984;5.872;2023-02-28T14:59:02;6.30;77.00
39019;DHT22;24786;51.984;5.872;2023-02-28T15:01:28;6.30;77.10
39019;DHT22;24786;51.984;5.872;2023-02-28T15:04:03;6.30;77.10
39019;DHT22;24786;51.984;5.872;2023-02-28T15:06:29;6.30;77.90
39019;DHT22;24786;51.984;5.872;2023-02-28T15:09:16;6.30;78.30
39019;DHT22;24786;51.984;5.872;2023-02-28T15:11:45;6.20;78.80
39019;DHT22;24786;51.984;5.872;2023-02-28T15:14:19;6.30;79.00
39019;DHT22;24786;51.984;5.872;2023-02-28T15:16:52;6.20;78.90
39019;DHT22;24786;51.984;5.872;2023-02-28T15:19:32;6.30;79.40
39019;DHT22;24786;51.984;5.872;2023-02-28T15:22:03;6.20;79.60
39019;DHT22;24786;51.984;5.872;2023-02-28T15:24:47;6.20;79.40
39019;DHT22;24786;51.984;5.872;2023-02-28T15:30:24;6.20;79.60
39019;DHT22;24786;51.984;5.872;2023-02-28T15:33:19;6.20;77.90
39019;DHT22;24786;51.984;5.872;2023-02-28T15:35:45;6.20;77.80
39019;DHT22;24786;51.984;5.872;2023-02-28T15:38:27;6.10;76.70
39019;DHT22;24786;51.984;5.872;2023-02-28T15:40:57;6.10;77.10
39019;DHT22;24786;51.984;5.872;2023-02-28T15:43:24;6.10;76.70
39019;DHT22;24786;51.984;5.872;2023-02-28T15:48:34;6.10;77.60
39019;DHT22;24786;51.984;5.872;2023-02-28T15:51:19;6.00;78.50
39019;DHT22;24786;51.984;5.872;2023-02-28T15:53:54;6.00;78.80
39019;DHT22;24786;51.984;5.872;2023-02-28T15:56:51;6.00;78.00
39019;DHT22;24786;51.984;5.872;2023-02-28T15:59:21;6.00;77.60
39019;DHT22;24786;51.984;5.872;2023-02-28T16:01:47;6.00;78.20
39019;DHT22;24786;51.984;5.872;2023-02-28T16:04:27;6.00;78.00
39019;DHT22;24786;51.984;5.872;2023-02-28T16:09:22;5.90;78.30
39019;DHT22;24786;51.984;5.872;2023-02-28T16:11:50;5.90;78.40
39019;DHT22;24786;51.984;5.872;2023-02-28T16:14:21;5.90;77.30
39019;DHT22;24786;51.984;5.872;2023-02-28T16:16:55;5.90;76.90
39019;DHT22;24786;51.984;5.872;2023-02-28T16:19:21;5.80;77.40
39019;DHT22;24786;51.984;5.872;2023-02-28T16:21:48;5.80;77.90
39019;DHT22;24786;51.984;5.872;2023-02-28T16:24:13;5.80;78.50
39019;DHT22;24786;51.984;5.872;2023-02-28T16:26:40;5.70;78.80
39019;DHT22;24786;51.984;5.872;2023-02-28T16:29:15;5.70;79.30
39019;DHT22;24786;51.984;5.872;2023-02-28T16:31:43;5.70;79.20
39019;DHT22;24786;51.984;5.872;2023-02-28T16:34:09;5.60;79.80
39019;DHT22;24786;51.984;5.872;2023-02-28T16:36:34;5.60;80.10
39019;DHT22;24786;51.984;5.872;2023-02-28T16:39:00;5.60;80.40
39019;DHT22;24786;51.984;5.872;2023-02-28T16:41:28;5.50;80.60
39019;DHT22;24786;51.984;5.872;2023-02-28T16:43:55;5.50;80.70
39019;DHT22;24786;51.984;5.872;2023-02-28T16:46:33;5.50;80.80
39019;DHT22;24786;51.984;5.872;2023-02-28T16:48:59;5.50;80.70
39019;DHT22;24786;51.984;5.872;2023-02-28T16:51:24;5.40;81.00
39019;DHT22;24786;51.984;5.872;2023-02-28T16:53:50;5.40;81.00
39019;DHT22;24786;51.984;5.872;2023-02-28T16:56:23;5.30;81.30
39019;DHT22;24786;51.984;5.872;2023-02-28T16:58:54;5.30;81.90
39019;DHT22;24786;51.984;5.872;2023-02-28T17:01:33;5.30;82.60
39019;DHT22;24786;51.984;5.872;2023-02-28T17:04:02;5.20;82.80
39019;DHT22;24786;51.984;5.872;2023-02-28T17:06:28;5.10;83.20
39019;DHT22;24786;51.984;5.872;2023-02-28T17:08:55;5.00;83.60
39019;DHT22;24786;51.984;5.872;2023-02-28T17:11:24;5.00;84.20
39019;DHT22;24786;51.984;5.872;2023-02-28T17:13:49;4.90;84.30
39019;DHT22;24786;51.984;5.872;2023-02-28T17:16:29;4.80;84.60
39019;DHT22;24786;51.984;5.872;2023-02-28T17:26:11;4.60;85.40
39019;DHT22;24786;51.984;5.872;2023-02-28T17:29:00;4.50;85.90
39019;DHT22;24786;51.984;5.872;2023-02-28T17:31:50;4.50;85.90
39019;DHT22;24786;51.984;5.872;2023-02-28T17:34:50;4.40;86.20
39019;DHT22;24786;51.984;5.872;2023-02-28T17:37:29;4.30;86.50
39019;DHT22;24786;51.984;5.872;2023-02-28T17:39:55;4.20;86.90
39019;DHT22;24786;51.984;5.872;2023-02-28T17:42:21;4.20;87.10
39019;DHT22;24786;51.984;5.872;2023-02-28T17:44:46;4.10;87.40
39019;DHT22;24786;51.984;5.872;2023-02-28T17:47:12;4.10;87.70
39019;DHT22;24786;51.984;5.872;2023-02-28T17:49:38;4.00;88.00
39019;DHT22;24786;51.984;5.872;2023-02-28T17:52:04;3.90;88.20
39019;DHT22;24786;51.984;5.872;2023-02-28T17:54:29;3.90;88.50
39019;DHT22;24786;51.984;5.872;2023-02-28T17:56:55;3.90;88.80
39019;DHT22;24786;51.984;5.872;2023-02-28T17:59:21;3.80;89.10
39019;DHT22;24786;51.984;5.872;2023-02-28T18:01:46;3.80;89.20
39019;DHT22;24786;51.984;5.872;2023-02-28T18:04:12;3.70;89.20
39019;DHT22;24786;51.984;5.872;2023-02-28T18:06:40;3.70;89.50
39019;DHT22;24786;51.984;5.872;2023-02-28T18:09:21;3.60;89.60
39019;DHT22;24786;51.984;5.872;2023-02-28T18:11:50;3.60;89.40
39019;DHT22;24786;51.984;5.872;2023-02-28T18:14:18;3.60;89.60
39019;DHT22;24786;51.984;5.872;2023-02-28T18:16:44;3.60;89.90
39019;DHT22;24786;51.984;5.872;2023-02-28T18:19:11;3.60;90.00
39019;DHT22;24786;51.984;5.872;2023-02-28T18:21:41;3.50;90.10
39019;DHT22;24786;51.984;5.872;2023-02-28T18:24:07;3.50;90.00